Time;durP1;ratioP1;P1;durP2;ratioP2;P2;SDS_P1;SDS_P2;PMS_P1;PMS_P2;Temp;Humidity;BMP_temperature;BMP_pressure;BME280_temperature;BME280_humidity;BME280_pressure;Samples;Min_cycle;Max_cycle;Signal;HPM_P1;HPM_P2
2023/03/31 00:00:10;;;;;;;10.88;3.28;;;;;;;11.20;100.00;100295.59;6227063;22;20008;-76
2023/03/31 00:02:41;;;;;;;8.05;2.60;;;;;;;11.19;100.00;100288.53;6224507;23;20016;-76
2023/03/31 00:05:08;;;;;;;14.90;2.97;;;;;;;11.31;100.00;100279.63;6199516;23;20090;-73
2023/03/31 00:07:36;;;;;;;13.07;3.17;;;;;;;11.23;100.00;100279.34;6227185;22;20500;-73
2023/03/31 00:10:04;;;;;;;13.85;2.60;;;;;;;11.20;100.00;100279.59;6226165;23;20095;-73
2023/03/31 00:12:30;;;;;;;13.60;3.90;;;;;;;11.22;100.00;100265.13;6228325;22;20016;-74
2023/03/31 00:14:55;;;;;;;13.00;3.25;;;;;;;10.89;100.00;100271.16;6227975;22;20046;-76
2023/03/31 00:17:23;;;;;;;12.48;3.15;;;;;;;11.08;100.00;100262.66;6225433;23;20012;-73
2023/03/31 00:19:49;;;;;;;16.75;4.03;;;;;;;11.15;100.00;100259.44;6228591;22;20016;-75
2023/03/31 00:22:21;;;;;;;10.90;3.55;;;;;;;11.20;100.00;100248.41;6228588;22;20090;-75
2023/03/31 00:24:49;;;;;;;11.00;3.15;;;;;;;11.15;100.00;100243.41;6229135;22;20019;-75
2023/03/31 00:27:15;;;;;;;10.20;3.72;;;;;;;11.03;100.00;100246.97;6227975;22;20012;-76
2023/03/31 00:29:42;;;;;;;15.18;3.78;;;;;;;11.10;100.00;100242.91;6229578;23;20019;-75
2023/03/31 00:32:08;;;;;;;10.80;3.50;;;;;;;11.24;100.00;100241.84;6228185;23;20034;-75
2023/03/31 00:34:33;;;;;;;12.73;3.22;;;;;;;11.36;100.00;100229.41;6226869;23;20015;-75
2023/03/31 00:37:04;;;;;;;12.38;2.85;;;;;;;11.32;100.00;100226.09;6228447;23;20043;-75
2023/03/31 00:39:33;;;;;;;12.73;3.33;;;;;;;11.24;100.00;100233.00;6227823;22;20075;-76
2023/03/31 00:42:03;;;;;;;13.60;2.97;;;;;;;11.27;100.00;100214.94;6228243;23;20035;-75
2023/03/31 00:44:32;;;;;;;6.07;2.83;;;;;;;11.31;100.00;100211.06;6226554;23;20338;-75
2023/03/31 00:47:15;;;;;;;12.57;3.00;;;;;;;11.48;100.00;100196.41;6202219;23;20031;-76
2023/03/31 00:49:55;;;;;;;9.85;2.67;;;;;;;11.40;100.00;100191.69;6227290;22;20027;-76
2023/03/31 00:52:31;;;;;;;8.60;2.72;;;;;;;11.30;100.00;100197.84;6227468;22;20035;-75
2023/03/31 00:55:03;;;;;;;10.60;3.10;;;;;;;11.41;100.00;100192.53;6227273;22;20019;-76
2023/03/31 00:57:38;;;;;;;9.35;3.60;;;;;;;11.34;100.00;100188.63;6225944;23;20102;-76
2023/03/31 01:00:17;;;;;;;21.88;5.28;;;;;;;11.44;100.00;100192.28;6227133;22;20020;-76
2023/03/31 01:02:54;;;;;;;9.68;2.85;;;;;;;11.41;100.00;100188.03;6227644;23;20019;-75
2023/03/31 01:05:46;;;;;;;8.02;3.25;;;;;;;11.55;100.00;100183.47;6224897;23;20046;-75
2023/03/31 01:08:13;;;;;;;9.52;2.85;;;;;;;11.31;100.00;100181.72;6188359;23;20115;-75
2023/03/31 01:10:47;;;;;;;8.48;2.33;;;;;;;11.55;100.00;100175.44;6226132;23;20008;-75
2023/03/31 01:13:15;;;;;;;8.88;2.15;;;;;;;11.47;100.00;100185.84;6202153;23;20012;-75
2023/03/31 01:15:41;;;;;;;10.68;3.08;;;;;;;11.40;100.00;100193.50;6227172;23;20012;-75
2023/03/31 01:18:19;;;;;;;15.55;3.30;;;;;;;11.30;100.00;100189.84;6226108;23;20050;-76
2023/03/31 01:21:13;;;;;;;13.38;2.88;;;;;;;11.25;100.00;100190.19;6252076;22;20095;-75
2023/03/31 01:24:01;;;;;;;11.70;3.28;;;;;;;11.14;100.00;100176.78;6226424;23;20016;-75
2023/03/31 01:26:47;;;;;;;10.20;3.35;;;;;;;11.17;100.00;100170.38;6201876;23;20030;-75
2023/03/31 01:29:35;;;;;;;7.75;2.90;;;;;;;11.26;100.00;100173.22;6227620;22;20019;-75
2023/03/31 01:32:30;;;;;;;13.70;3.13;;;;;;;11.18;100.00;100156.06;6226453;23;20020;-74
2023/03/31 01:35:13;;;;;;;10.90;4.53;;;;;;;11.08;100.00;100154.09;6226402;23;20020;-74
2023/03/31 01:37:45;;;;;;;16.23;3.15;;;;;;;11.28;100.00;100144.56;6225574;23;20012;-74
2023/03/31 01:40:29;;;;;;;7.03;3.28;;;;;;;11.20;100.00;100139.00;6225101;22;20015;-75
2023/03/31 01:43:15;;;;;;;14.00;3.42;;;;;;;11.39;100.00;100125.88;6227748;23;20672;-74
2023/03/31 01:45:53;;;;;;;7.68;2.88;;;;;;;11.26;100.00;100121.66;6227741;22;20012;-74
2023/03/31 01:48:32;;;;;;;10.27;3.13;;;;;;;11.16;100.00;100108.16;6227637;23;20016;-75
2023/03/31 01:51:05;;;;;;;14.35;2.40;;;;;;;11.35;100.00;100097.75;6228395;23;20018;-75
2023/03/31 01:53:49;;;;;;;8.43;3.45;;;;;;;11.21;100.00;100097.13;6225775;23;20019;-75
2023/03/31 01:56:36;;;;;;;12.10;3.42;;;;;;;11.30;100.00;100091.09;6227500;22;20050;-75
2023/03/31 01:59:37;;;;;;;14.45;2.70;;;;;;;11.32;100.00;100086.47;6225773;23;20008;-75
2023/03/31 02:02:09;;;;;;;24.10;3.80;;;;;;;11.26;100.00;100076.28;6225403;22;20047;-75
2023/03/31 02:04:46;;;;;;;15.00;3.92;;;;;;;11.41;100.00;100069.72;6225320;23;20023;-74
2023/03/31 02:07:23;;;;;;;12.18;4.50;;;;;;;11.35;100.00;100062.22;6227642;22;20737;-76
2023/03/31 02:09:56;;;;;;;11.48;3.33;;;;;;;11.38;100.00;100053.94;6228915;22;20043;-75
2023/03/31 02:12:26;;;;;;;9.15;3.00;;;;;;;11.35;100.00;100048.88;6225822;23;20688;-75
2023/03/31 02:14:55;;;;;;;15.60;4.68;;;;;;;11.27;100.00;100040.59;6227350;22;20032;-75
2023/03/31 02:17:31;;;;;;;12.05;3.97;;;;;;;11.25;100.00;100047.91;6227934;23;20062;-75
2023/03/31 02:20:05;;;;;;;10.95;3.35;;;;;;;11.29;100.00;100033.31;6227787;23;20020;-75
2023/03/31 02:22:45;;;;;;;11.75;2.85;;;;;;;11.28;100.00;100034.28;6228975;22;20089;-76
2023/03/31 02:25:16;;;;;;;11.57;3.20;;;;;;;11.28;100.00;100027.13;6228108;22;20845;-75
2023/03/31 02:27:46;;;;;;;18.70;3.38;;;;;;;11.22;100.00;100024.09;6200357;23;20024;-76
2023/03/31 02:30:13;;;;;;;18.52;3.42;;;;;;;11.28;100.00;100013.78;6228934;22;20731;-75
2023/03/31 02:32:45;;;;;;;13.98;3.20;;;;;;;11.22;100.00;100006.28;6226812;23;20023;-75
2023/03/31 02:35:18;;;;;;;18.98;5.80;;;;;;;11.30;100.00;99997.66;6227151;23;20012;-75
2023/03/31 02:37:45;;;;;;;14.57;3.05;;;;;;;11.37;100.00;99989.03;6225292;23;20008;-74
2023/03/31 02:40:22;;;;;;;17.52;2.97;;;;;;;11.35;100.00;99985.66;6226498;23;20024;-75
2023/03/31 02:42:48;;;;;;;12.75;3.70;;;;;;;11.43;100.00;99982.34;6228250;22;20012;-75
2023/03/31 02:45:46;;;;;;;12.30;3.67;;;;;;;11.38;100.00;99976.53;6227747;23;20019;-75
2023/03/31 02:48:48;;;;;;;12.38;3.75;;;;;;;11.25;100.00;99951.81;6228147;22;20009;-75
2023/03/31 02:51:15;;;;;;;15.18;3.08;;;;;;;11.41;100.00;99960.28;6222451;22;20027;-75
2023/03/31 02:53:47;;;;;;;11.55;4.07;;;;;;;11.17;100.00;99943.56;6227299;23;20066;-74
2023/03/31 02:56:48;;;;;;;18.37;3.67;;;;;;;11.35;100.00;99942.09;6226947;23;20113;-74
2023/03/31 02:59:45;;;;;;;11.30;2.70;;;;;;;11.21;100.00;99929.03;6110458;23;20441;-74
2023/03/31 03:02:27;;;;;;;15.88;3.15;;;;;;;11.39;100.00;99923.00;6111559;23;20045;-74
2023/03/31 03:05:36;;;;;;;15.90;2.90;;;;;;;11.29;100.00;99916.72;6111426;23;20447;-75
2023/03/31 03:08:56;;;;;;;15.05;4.18;;;;;;;11.33;100.00;99904.00;6121565;23;20611;-75
2023/03/31 03:11:53;;;;;;;9.80;2.75;;;;;;;11.27;100.00;99896.50;6110072;23;20160;-75
2023/03/31 03:14:34;;;;;;;13.93;2.75;;;;;;;11.24;100.00;99894.91;6110779;23;20021;-75
2023/03/31 03:17:24;;;;;;;12.52;2.88;;;;;;;11.30;100.00;99880.25;6134762;23;20013;-75
2023/03/31 03:19:55;;;;;;;7.90;2.95;;;;;;;11.27;100.00;99884.00;6110429;23;20101;-75
2023/03/31 03:22:24;;;;;;;18.65;4.22;;;;;;;11.28;100.00;99887.50;6108259;23;20303;-75
2023/03/31 03:24:51;;;;;;;22.95;5.25;;;;;;;11.31;100.00;99884.59;6132610;23;20021;-75
2023/03/31 03:27:21;;;;;;;13.75;4.47;;;;;;;11.18;100.00;99887.41;6131586;23;20643;-75
2023/03/31 03:29:47;;;;;;;24.77;5.43;;;;;;;11.18;100.00;99881.22;6106976;23;20032;-75
2023/03/31 03:32:13;;;;;;;18.88;3.72;;;;;;;11.36;100.00;99866.38;6131477;23;20017;-74
2023/03/31 03:34:41;;;;;;;18.70;4.00;;;;;;;11.30;100.00;99874.91;6149918;23;20454;-75
2023/03/31 03:37:07;;;;;;;14.80;3.40;;;;;;;11.34;100.00;99854.97;6223787;23;20012;-75
2023/03/31 03:39:32;;;;;;;22.55;5.78;;;;;;;11.34;100.00;99847.81;6223402;23;20528;-75
2023/03/31 03:41:58;;;;;;;18.65;3.13;;;;;;;11.35;100.00;99841.53;6222745;23;20020;-75
2023/03/31 03:44:24;;;;;;;22.58;3.58;;;;;;;11.45;100.00;99836.25;6225601;23;20047;-74
2023/03/31 03:46:49;;;;;;;14.23;3.60;;;;;;;11.25;100.00;99823.72;6224649;22;20761;-75
2023/03/31 03:49:15;;;;;;;26.10;4.20;;;;;;;11.33;100.00;99819.44;6226421;22;20243;-74
2023/03/31 03:51:40;;;;;;;15.82;3.42;;;;;;;11.41;100.00;99813.47;6226062;23;20085;-74
2023/03/31 03:54:06;;;;;;;18.80;3.17;;;;;;;11.41;100.00;99816.97;6225481;22;20893;-75
2023/03/31 03:56:32;;;;;;;23.50;5.65;;;;;;;11.60;100.00;99796.75;6199974;23;20055;-74
2023/03/31 03:58:58;;;;;;;20.58;5.30;;;;;;;11.52;100.00;99792.03;6226868;22;20943;-75
2023/03/31 04:01:24;;;;;;;21.52;4.63;;;;;;;11.37;100.00;99801.34;6226247;22;20226;-75
2023/03/31 04:03:50;;;;;;;19.98;3.45;;;;;;;11.37;100.00;99804.00;6222814;23;20016;-75
2023/03/31 04:06:15;;;;;;;14.23;3.72;;;;;;;11.48;100.00;99797.78;6225922;23;20782;-75
2023/03/31 04:08:41;;;;;;;17.27;5.75;;;;;;;11.55;100.00;99788.28;6226192;23;21006;-75
2023/03/31 04:11:18;;;;;;;19.25;4.90;;;;;;;11.63;100.00;99783.97;6225903;22;20731;-74
2023/03/31 04:13:45;;;;;;;18.60;3.63;;;;;;;11.37;100.00;99777.31;6223719;23;20016;-75
2023/03/31 04:16:12;;;;;;;22.05;4.38;;;;;;;11.20;100.00;99778.75;6225811;22;20008;-75
2023/03/31 04:18:41;;;;;;;19.83;3.28;;;;;;;11.29;100.00;99769.94;6224899;23;20015;-74
2023/03/31 04:21:14;;;;;;;23.63;5.45;;;;;;;11.28;100.00;99776.25;6225227;23;20771;-75
2023/03/31 04:23:45;;;;;;;19.35;4.40;;;;;;;11.27;100.00;99779.06;6224996;22;20066;-75
2023/03/31 04:26:16;;;;;;;20.25;3.50;;;;;;;11.25;100.00;99759.69;6224653;23;20012;-75
2023/03/31 04:28:45;;;;;;;19.25;3.60;;;;;;;11.25;100.00;99757.00;6225286;22;20385;-75
2023/03/31 04:31:23;;;;;;;16.58;3.42;;;;;;;11.25;100.00;99749.84;6226132;22;20012;-75
2023/03/31 04:33:53;;;;;;;17.63;3.95;;;;;;;11.27;100.00;99736.38;6226430;22;20035;-74
2023/03/31 04:36:23;;;;;;;7.82;3.03;;;;;;;11.24;100.00;99731.28;6224849;23;20128;-74
2023/03/31 04:38:53;;;;;;;16.38;3.83;;;;;;;11.30;100.00;99718.28;6223032;23;20103;-74
2023/03/31 04:41:22;;;;;;;21.45;6.32;;;;;;;11.23;100.00;99708.25;6223810;23;20022;-74
2023/03/31 04:43:55;;;;;;;16.15;4.15;;;;;;;11.30;100.00;99702.28;6248521;22;20054;-75
2023/03/31 04:46:24;;;;;;;19.60;3.53;;;;;;;11.31;100.00;99689.78;6226791;22;20111;-75
2023/03/31 04:48:49;;;;;;;14.75;3.88;;;;;;;11.26;100.00;99679.47;6226900;22;20012;-74
2023/03/31 04:51:15;;;;;;;19.58;3.63;;;;;;;11.27;100.00;99672.31;6224135;23;20023;-75
2023/03/31 04:53:46;;;;;;;19.17;4.18;;;;;;;11.25;100.00;99664.44;6225042;22;20780;-74
2023/03/31 04:56:12;;;;;;;24.92;4.30;;;;;;;11.35;100.00;99654.69;6226558;22;20359;-75
2023/03/31 04:58:37;;;;;;;19.67;5.88;;;;;;;11.36;100.00;99650.19;6224396;22;20007;-74
2023/03/31 05:01:07;;;;;;;17.77;3.75;;;;;;;11.27;100.00;99641.13;6224673;22;20023;-75
2023/03/31 05:03:33;;;;;;;14.73;3.80;;;;;;;11.19;100.00;99634.75;6225444;22;20019;-75
2023/03/31 05:06:01;;;;;;;23.17;4.80;;;;;;;11.15;100.00;99632.38;6226229;22;20040;-75
2023/03/31 05:08:30;;;;;;;20.77;4.13;;;;;;;11.18;100.00;99636.59;6223583;22;20020;-72
2023/03/31 05:10:56;;;;;;;18.95;3.70;;;;;;;11.16;100.00;99630.53;6223578;22;20025;-75
2023/03/31 05:13:22;;;;;;;26.00;3.90;;;;;;;11.00;100.00;99623.00;6224352;23;20052;-74
2023/03/31 05:15:49;;;;;;;19.17;3.63;;;;;;;11.13;100.00;99626.28;6226102;22;20023;-74
2023/03/31 05:18:18;;;;;;;20.13;4.13;;;;;;;11.03;100.00;99616.53;6226790;22;20011;-74
2023/03/31 05:20:44;;;;;;;24.48;4.40;;;;;;;11.15;100.00;99611.03;6198809;23;20012;-75
2023/03/31 05:23:18;;;;;;;24.15;4.03;;;;;;;11.29;100.00;99611.66;6225843;23;20822;-75
2023/03/31 05:25:43;;;;;;;17.58;4.35;;;;;;;11.03;100.00;99611.22;6225833;22;20016;-75
2023/03/31 05:28:09;;;;;;;20.90;4.55;;;;;;;11.06;100.00;99609.13;6224542;23;20015;-75
2023/03/31 05:30:37;;;;;;;18.70;5.00;;;;;;;11.23;100.00;99596.16;6200645;23;20620;-74
2023/03/31 05:33:03;;;;;;;16.02;4.45;;;;;;;11.24;100.00;99593.34;6226298;23;20016;-74
2023/03/31 05:35:28;;;;;;;25.27;5.50;;;;;;;11.19;100.00;99603.59;6227349;22;20023;-75
2023/03/31 05:37:54;;;;;;;17.42;6.03;;;;;;;11.26;100.00;99591.41;6227899;23;20474;-75
2023/03/31 05:40:22;;;;;;;29.13;6.00;;;;;;;11.15;100.00;99592.34;6227487;22;20020;-75
2023/03/31 05:42:47;;;;;;;14.98;4.38;;;;;;;11.32;100.00;99593.56;6227466;22;20203;-75
2023/03/31 05:45:13;;;;;;;23.65;6.10;;;;;;;11.38;100.00;99582.34;6226757;23;20763;-75
2023/03/31 05:47:38;;;;;;;19.50;5.30;;;;;;;11.56;100.00;99576.38;6225054;23;20012;-75
2023/03/31 05:50:07;;;;;;;17.38;4.63;;;;;;;11.50;100.00;99568.91;6223754;23;20023;-74
2023/03/31 05:52:33;;;;;;;24.90;4.30;;;;;;;11.45;100.00;99563.13;6224041;22;20166;-75
2023/03/31 05:55:03;;;;;;;23.33;4.10;;;;;;;11.46;100.00;99552.31;6221857;23;20016;-74
2023/03/31 05:57:32;;;;;;;24.83;6.18;;;;;;;11.38;100.00;99550.31;6222148;23;20023;-74
2023/03/31 05:59:57;;;;;;;22.77;5.00;;;;;;;11.39;100.00;99541.31;6223137;23;20011;-75
2023/03/31 06:02:23;;;;;;;12.80;3.78;;;;;;;11.44;100.00;99530.22;6224829;22;20562;-75
2023/03/31 06:04:49;;;;;;;17.13;4.97;;;;;;;11.68;100.00;99529.91;6223584;23;20019;-75
2023/03/31 06:07:16;;;;;;;13.38;3.35;;;;;;;11.66;100.00;99529.19;6223907;22;20016;-75
2023/03/31 06:09:42;;;;;;;23.83;4.43;;;;;;;11.74;100.00;99532.00;6196077;23;20016;-75
2023/03/31 06:12:16;;;;;;;15.20;4.22;;;;;;;11.79;100.00;99520.91;6221701;22;20015;-75
2023/03/31 06:14:48;;;;;;;12.73;4.78;;;;;;;11.78;100.00;99516.56;6221456;23;20012;-75
2023/03/31 06:17:13;;;;;;;17.15;3.70;;;;;;;11.72;100.00;99514.44;6223437;22;20019;-75
2023/03/31 06:19:42;;;;;;;13.63;3.53;;;;;;;11.80;100.00;99503.94;6196940;23;20020;-75
2023/03/31 06:22:07;;;;;;;21.48;3.53;;;;;;;11.84;100.00;99516.03;6223730;23;20015;-75
2023/03/31 06:24:35;;;;;;;17.92;4.32;;;;;;;11.82;100.00;99515.34;6222358;23;20019;-75
2023/03/31 06:27:02;;;;;;;9.30;3.78;;;;;;;11.80;100.00;99511.94;6224342;23;20018;-75
2023/03/31 06:32:34;;;;;;;17.15;4.40;;;;;;;11.91;100.00;99499.34;6221479;22;20659;-70
2023/03/31 06:35:00;;;;;;;14.63;4.03;;;;;;;12.21;100.00;99499.38;6233112;23;20016;-73
2023/03/31 06:37:25;;;;;;;11.60;3.15;;;;;;;12.22;100.00;99487.69;6232402;23;20020;-72
2023/03/31 06:39:51;;;;;;;10.95;2.67;;;;;;;12.39;100.00;99484.28;6224580;22;20027;-74
2023/03/31 06:42:16;;;;;;;11.18;2.22;;;;;;;12.16;100.00;99489.94;6212559;23;20019;-74
2023/03/31 06:44:42;;;;;;;12.10;2.45;;;;;;;12.27;100.00;99491.63;6191760;22;20032;-70
2023/03/31 06:47:07;;;;;;;10.38;2.50;;;;;;;12.23;100.00;99486.69;6218346;23;20555;-69
2023/03/31 06:49:33;;;;;;;16.13;2.47;;;;;;;12.39;100.00;99484.28;6214063;23;20076;-71
2023/03/31 06:51:58;;;;;;;10.13;1.95;;;;;;;12.19;100.00;99478.09;6221719;23;20015;-70
2023/03/31 06:54:24;;;;;;;7.65;2.10;;;;;;;11.99;100.00;99477.25;6221458;23;20008;-72
2023/03/31 06:56:49;;;;;;;13.50;2.13;;;;;;;12.11;100.00;99477.97;6222416;23;20016;-70
2023/03/31 06:59:15;;;;;;;9.93;2.13;;;;;;;12.14;100.00;99469.66;6215604;23;20012;-70
2023/03/31 07:01:41;;;;;;;9.20;1.80;;;;;;;11.92;100.00;99478.81;6216702;23;20019;-71
2023/03/31 07:04:06;;;;;;;8.73;1.88;;;;;;;12.28;100.00;99474.59;6214277;23;20016;-70
2023/03/31 07:06:33;;;;;;;8.05;1.85;;;;;;;12.31;100.00;99468.13;6218132;23;20020;-70
2023/03/31 07:08:58;;;;;;;12.55;2.20;;;;;;;12.23;100.00;99460.81;6218697;23;20401;-72
2023/03/31 07:11:24;;;;;;;3.80;1.75;;;;;;;12.11;100.00;99464.63;6219711;23;20012;-72
2023/03/31 07:13:49;;;;;;;5.93;2.00;;;;;;;12.27;100.00;99459.53;6219260;23;20016;-69
2023/03/31 07:16:15;;;;;;;11.70;2.35;;;;;;;12.01;100.00;99463.78;6222701;23;20741;-70
2023/03/31 07:18:40;;;;;;;9.82;3.08;;;;;;;11.99;100.00;99461.22;6219607;23;20672;-74
2023/03/31 07:21:07;;;;;;;13.07;2.33;;;;;;;11.90;100.00;99462.09;6220683;23;20058;-70
2023/03/31 07:23:33;;;;;;;6.82;2.33;;;;;;;11.78;100.00;99464.00;6222123;23;20012;-70
2023/03/31 07:26:01;;;;;;;9.13;2.60;;;;;;;11.82;100.00;99456.59;6220681;23;20425;-70
2023/03/31 07:28:42;;;;;;;8.43;2.05;;;;;;;11.77;100.00;99451.63;6221467;23;20425;-69
2023/03/31 07:31:13;;;;;;;15.35;2.35;;;;;;;11.82;100.00;99461.94;6220339;23;20016;-71
2023/03/31 07:33:40;;;;;;;11.98;2.55;;;;;;;12.00;100.00;99462.06;6222070;23;20027;-69
2023/03/31 07:36:06;;;;;;;7.00;2.38;;;;;;;11.88;100.00;99456.03;6219072;23;20016;-71
2023/03/31 07:38:31;;;;;;;7.07;2.15;;;;;;;11.83;100.00;99463.63;6219935;23;20020;-72
2023/03/31 07:40:57;;;;;;;7.03;2.05;;;;;;;11.79;100.00;99467.50;6219255;23;20652;-70
2023/03/31 07:43:22;;;;;;;8.15;2.15;;;;;;;11.80;100.00;99466.56;6219201;23;20021;-70
2023/03/31 07:45:48;;;;;;;12.85;3.45;;;;;;;11.83;100.00;99463.63;6217512;23;20113;-72
2023/03/31 07:48:13;;;;;;;8.45;2.05;;;;;;;11.99;100.00;99455.88;6218519;23;20027;-72
2023/03/31 07:50:39;;;;;;;6.32;1.90;;;;;;;11.79;100.00;99446.13;6219074;23;20016;-74
2023/03/31 07:53:13;;;;;;;6.88;1.70;;;;;;;11.87;100.00;99446.34;6191578;23;20004;-71
2023/03/31 07:55:39;;;;;;;11.07;2.22;;;;;;;11.84;100.00;99438.59;6226826;23;20187;-70
2023/03/31 07:58:05;;;;;;;13.55;2.92;;;;;;;11.63;100.00;99434.19;6223942;23;20752;-71
2023/03/31 08:00:31;;;;;;;5.43;2.20;;;;;;;11.75;100.00;99439.41;6220068;23;20423;-70
2023/03/31 08:02:56;;;;;;;14.50;1.95;;;;;;;11.90;100.00;99436.22;6216604;23;20014;-72
2023/03/31 08:05:26;;;;;;;6.28;2.00;;;;;;;11.88;100.00;99421.31;6221299;23;20004;-73
2023/03/31 08:07:51;;;;;;;3.88;1.63;;;;;;;11.98;100.00;99418.63;6219649;23;20020;-72
2023/03/31 08:10:21;;;;;;;8.10;2.17;;;;;;;11.99;100.00;99405.13;6218899;23;20020;-71
2023/03/31 08:12:47;;;;;;;10.02;1.73;;;;;;;12.07;100.00;99397.25;6218086;23;20804;-72
2023/03/31 08:15:12;;;;;;;6.55;1.90;;;;;;;11.75;100.00;99402.88;6217773;23;20078;-71
2023/03/31 08:17:38;;;;;;;4.72;1.90;;;;;;;11.99;100.00;99394.44;6220447;23;20016;-71
2023/03/31 08:20:09;;;;;;;4.72;2.30;;;;;;;12.05;100.00;99396.56;6220453;23;20050;-72
2023/03/31 08:22:36;;;;;;;3.70;2.00;;;;;;;12.05;100.00;99390.34;6213867;23;20016;-72
2023/03/31 08:25:02;;;;;;;4.75;1.38;;;;;;;12.10;100.00;99390.78;6219299;23;20015;-71
2023/03/31 08:27:31;;;;;;;7.13;1.60;;;;;;;12.47;100.00;99390.84;6217300;23;20682;-71
2023/03/31 08:30:23;;;;;;;10.50;1.38;;;;;;;12.37;100.00;99376.66;6220945;23;20020;-71
2023/03/31 08:32:49;;;;;;;3.93;1.43;;;;;;;12.43;100.00;99379.59;6201496;23;20023;-70
2023/03/31 08:35:27;;;;;;;10.43;1.75;;;;;;;12.37;100.00;99374.00;6216252;23;20789;-73
2023/03/31 08:37:52;;;;;;;12.43;2.08;;;;;;;12.68;100.00;99374.59;6216299;23;20295;-71
2023/03/31 08:43:28;;;;;;;9.05;3.25;;;;;;;12.96;100.00;99356.72;6213430;23;20028;-74
2023/03/31 08:45:55;;;;;;;11.38;2.45;;;;;;;13.28;100.00;99358.13;6212847;23;20008;-74
2023/03/31 08:48:44;;;;;;;4.50;2.50;;;;;;;13.38;100.00;99362.41;6190852;23;20016;-74
2023/03/31 08:51:32;;;;;;;10.85;2.25;;;;;;;13.62;100.00;99356.47;6216093;23;20436;-74
2023/03/31 08:54:24;;;;;;;9.30;2.47;;;;;;;13.95;100.00;99352.19;6214997;23;20012;-74
2023/03/31 08:56:51;;;;;;;11.63;2.58;;;;;;;13.98;100.00;99351.06;6199013;23;20116;-74
2023/03/31 08:59:19;;;;;;;6.50;2.20;;;;;;;14.13;100.00;99360.22;6213113;23;20028;-74
2023/03/31 09:01:55;;;;;;;10.43;2.63;;;;;;;13.95;100.00;99359.41;6160869;23;20012;-74
2023/03/31 09:04:52;;;;;;;12.70;3.63;;;;;;;14.31;100.00;99352.16;6188355;23;20742;-74
2023/03/31 09:07:40;;;;;;;14.05;2.83;;;;;;;14.37;100.00;99353.34;6163749;23;20026;-74
2023/03/31 09:10:32;;;;;;;17.48;3.28;;;;;;;14.91;100.00;99354.84;6215393;23;20020;-75
2023/03/31 09:13:28;;;;;;;8.15;2.67;;;;;;;14.40;100.00;99344.97;6188324;23;20012;-74
2023/03/31 09:16:12;;;;;;;9.65;2.65;;;;;;;14.48;100.00;99353.09;6188195;23;20023;-74
2023/03/31 09:18:42;;;;;;;14.40;3.28;;;;;;;13.92;100.00;99349.00;6215979;23;20008;-74
2023/03/31 09:21:34;;;;;;;6.90;3.15;;;;;;;14.33;100.00;99346.63;6189120;23;20043;-74
2023/03/31 09:24:22;;;;;;;17.65;3.60;;;;;;;14.19;100.00;99348.88;6215972;23;20737;-75
2023/03/31 09:26:57;;;;;;;18.30;3.67;;;;;;;14.50;100.00;99343.06;6189748;23;20020;-74
2023/03/31 09:29:41;;;;;;;10.35;3.20;;;;;;;14.75;100.00;99330.59;6216030;23;20098;-74
2023/03/31 09:32:29;;;;;;;18.42;4.07;;;;;;;14.57;100.00;99332.53;6215143;23;20130;-74
2023/03/31 09:35:00;;;;;;;18.67;3.25;;;;;;;14.24;100.00;99335.00;6190098;23;20022;-74
2023/03/31 09:37:32;;;;;;;18.30;4.30;;;;;;;14.67;100.00;99334.09;6216357;23;20012;-74
2023/03/31 09:40:06;;;;;;;27.52;5.25;;;;;;;14.35;100.00;99329.34;6190174;23;20458;-74
2023/03/31 09:42:33;;;;;;;11.02;3.20;;;;;;;14.09;100.00;99331.19;6188984;23;20066;-74
2023/03/31 09:45:03;;;;;;;11.00;3.20;;;;;;;14.56;100.00;99330.84;6217654;23;20015;-74
2023/03/31 09:47:42;;;;;;;12.75;2.92;;;;;;;14.67;100.00;99328.72;6216301;23;20012;-74
2023/03/31 09:50:10;;;;;;;23.80;4.82;;;;;;;14.70;100.00;99330.25;6217799;23;20016;-74
2023/03/31 09:52:46;;;;;;;10.05;3.10;;;;;;;15.02;100.00;99321.50;6215712;23;20637;-75
2023/03/31 09:55:21;;;;;;;21.58;3.42;;;;;;;15.07;100.00;99318.31;6216088;23;20011;-74
2023/03/31 09:57:50;;;;;;;17.05;3.70;;;;;;;15.00;100.00;99315.44;6216902;23;20019;-73
2023/03/31 10:00:19;;;;;;;10.32;3.13;;;;;;;14.83;100.00;99319.06;6189477;23;20027;-74
2023/03/31 10:02:55;;;;;;;16.20;3.85;;;;;;;15.44;100.00;99317.88;6217142;23;20485;-74
2023/03/31 10:05:38;;;;;;;21.02;4.45;;;;;;;15.41;100.00;99308.31;6217816;23;20106;-75
2023/03/31 10:08:13;;;;;;;10.57;2.92;;;;;;;15.49;100.00;99302.09;6216652;23;20641;-74
2023/03/31 10:10:45;;;;;;;15.65;3.95;;;;;;;15.37;100.00;99306.13;6216585;23;20016;-74
2023/03/31 10:13:15;;;;;;;19.83;4.57;;;;;;;16.00;100.00;99300.94;6217424;23;20107;-74
2023/03/31 10:15:41;;;;;;;17.30;3.88;;;;;;;15.38;100.00;99299.75;6216112;23;20442;-74
2023/03/31 10:18:15;;;;;;;16.50;3.38;;;;;;;15.55;100.00;99291.53;6216549;23;20027;-74
2023/03/31 10:20:51;;;;;;;15.95;5.22;;;;;;;15.66;100.00;99290.41;6188669;23;20128;-74
2023/03/31 10:23:31;;;;;;;17.40;3.70;;;;;;;16.10;100.00;99283.78;6216666;23;20016;-74
2023/03/31 10:25:58;;;;;;;19.42;3.70;;;;;;;15.64;100.00;99291.56;6217998;23;20016;-75
2023/03/31 10:28:25;;;;;;;22.92;3.97;;;;;;;15.25;100.00;99281.41;6189790;23;20756;-74
2023/03/31 10:31:00;;;;;;;18.27;3.22;;;;;;;15.29;100.00;99280.09;6216556;23;20016;-74
2023/03/31 10:33:28;;;;;;;16.67;3.28;;;;;;;14.70;100.00;99288.16;6188461;23;20023;-74
2023/03/31 10:36:13;;;;;;;12.60;3.78;;;;;;;14.81;100.00;99286.16;6189822;23;20483;-74
2023/03/31 10:38:43;;;;;;;22.50;3.60;;;;;;;14.55;100.00;99283.56;6188286;23;20016;-73
2023/03/31 10:41:11;;;;;;;12.07;3.35;;;;;;;14.54;100.00;99282.72;6185367;23;20020;-74
2023/03/31 10:43:46;;;;;;;16.23;3.10;;;;;;;14.45;100.00;99268.38;6183358;23;20021;-75
2023/03/31 10:46:12;;;;;;;16.77;2.67;;;;;;;14.62;100.00;99273.88;6185682;23;20186;-74
2023/03/31 10:48:41;;;;;;;13.00;2.58;;;;;;;14.59;100.00;99279.56;6186618;23;20127;-74
2023/03/31 10:51:18;;;;;;;17.80;2.60;;;;;;;14.58;100.00;99281.41;6159799;23;20281;-73
2023/03/31 10:53:46;;;;;;;20.27;3.60;;;;;;;14.99;100.00;99276.16;6187778;23;20175;-75
2023/03/31 10:56:40;;;;;;;14.27;4.13;;;;;;;14.75;100.00;99274.25;6189778;23;20435;-74
2023/03/31 10:59:31;;;;;;;10.65;2.80;;;;;;;14.99;100.00;99262.75;6185823;23;20036;-74
2023/03/31 11:02:26;;;;;;;11.88;3.42;;;;;;;15.27;100.00;99269.53;6186462;23;20024;-74
2023/03/31 11:05:16;;;;;;;13.85;2.72;;;;;;;15.38;100.00;99262.13;6190403;23;20016;-74
2023/03/31 11:07:53;;;;;;;13.73;2.95;;;;;;;15.45;100.00;99247.03;6188531;23;20023;-74
2023/03/31 11:10:24;;;;;;;13.55;4.15;;;;;;;15.72;100.00;99248.56;6190068;23;20114;-74
2023/03/31 11:13:18;;;;;;;9.52;2.95;;;;;;;15.92;100.00;99247.19;6192142;23;20036;-74
2023/03/31 11:16:23;;;;;;;19.23;4.07;;;;;;;16.00;100.00;99236.41;6100032;23;20117;-75
2023/03/31 11:18:51;;;;;;;14.43;3.15;;;;;;;16.29;100.00;99235.00;6099763;23;20064;-74
2023/03/31 11:21:41;;;;;;;13.15;2.63;;;;;;;15.85;100.00;99239.97;6098614;23;20038;-74
2023/03/31 11:24:24;;;;;;;12.45;2.40;;;;;;;16.03;99.50;99241.47;6076192;23;20155;-75
2023/03/31 11:27:02;;;;;;;13.00;3.20;;;;;;;16.14;100.00;99239.41;6100392;23;20024;-75
2023/03/31 11:29:36;;;;;;;14.68;3.42;;;;;;;16.03;99.43;99238.78;6099430;23;20048;-76
2023/03/31 11:32:02;;;;;;;11.65;2.92;;;;;;;16.56;100.00;99234.53;6103088;23;20022;-75
2023/03/31 11:34:33;;;;;;;14.35;2.22;;;;;;;16.33;97.81;99232.81;6101232;23;20055;-74
2023/03/31 11:37:20;;;;;;;13.27;4.28;;;;;;;16.33;98.00;99230.13;6075281;23;20017;-74
2023/03/31 11:40:16;;;;;;;11.93;2.17;;;;;;;16.48;99.17;99236.44;6101752;23;20488;-74
2023/03/31 11:43:16;;;;;;;11.68;2.25;;;;;;;15.70;98.90;99227.22;6099110;23;20463;-74
2023/03/31 11:45:50;;;;;;;14.60;2.42;;;;;;;15.64;99.21;99233.28;6064191;23;20663;-75
2023/03/31 11:48:36;;;;;;;7.72;2.60;;;;;;;16.36;96.24;99227.06;6077480;23;20022;-75